sensor_id;sensor_type;location;lat;lon;timestamp;pressure;altitude;pressure_sealevel;temperature;humidity
11856;BME280;5987;53.140;8.904;2023-04-25T00:00:32;100640.38;;;5.75;100.00
11856;BME280;5987;53.140;8.904;2023-04-25T00:03:36;100642.19;;;5.73;100.00
11856;BME280;5987;53.140;8.904;2023-04-25T00:06:40;100642.13;;;5.76;100.00
11856;BME280;5987;53.140;8.904;2023-04-25T00:09:45;100646.38;;;5.80;100.00
11856;BME280;5987;53.140;8.904;2023-04-25T00:12:48;100652.50;;;5.77;100.00
11856;BME280;5987;53.140;8.904;2023-04-25T00:15:53;100656.91;;;5.75;100.00
11856;BME280;5987;53.140;8.904;2023-04-25T00:18:58;100666.38;;;5.78;100.00
11856;BME280;5987;53.140;8.904;2023-04-25T00:22:02;100665.41;;;5.82;100.00
11856;BME280;5987;53.140;8.904;2023-04-25T00:25:06;100668.91;;;5.82;100.00
11856;BME280;5987;53.140;8.904;2023-04-25T00:28:10;100669.88;;;5.77;100.00
11856;BME280;5987;53.140;8.904;2023-04-25T00:31:15;100683.72;;;5.79;100.00
11856;BME280;5987;53.140;8.904;2023-04-25T00:34:19;100666.19;;;5.87;100.00
11856;BME280;5987;53.140;8.904;2023-04-25T00:37:23;100674.16;;;5.81;100.00
11856;BME280;5987;53.140;8.904;2023-04-25T00:40:27;100672.53;;;5.75;100.00
11856;BME280;5987;53.140;8.904;2023-04-25T00:43:33;100675.97;;;5.76;100.00
11856;BME280;5987;53.140;8.904;2023-04-25T00:46:39;100678.72;;;5.70;100.00
11856;BME280;5987;53.140;8.904;2023-04-25T00:49:43;100683.81;;;5.74;100.00
11856;BME280;5987;53.140;8.904;2023-04-25T00:52:46;100677.03;;;5.67;100.00
11856;BME280;5987;53.140;8.904;2023-04-25T00:55:51;100675.28;;;5.66;100.00
11856;BME280;5987;53.140;8.904;2023-04-25T00:58:56;100676.25;;;5.62;100.00
11856;BME280;5987;53.140;8.904;2023-04-25T01:02:01;100683.28;;;5.55;100.00
11856;BME280;5987;53.140;8.904;2023-04-25T01:05:05;100687.50;;;5.62;100.00
11856;BME280;5987;53.140;8.904;2023-04-25T01:08:09;100690.25;;;5.55;100.00
11856;BME280;5987;53.140;8.904;2023-04-25T01:11:13;100687.69;;;5.53;100.00
11856;BME280;5987;53.140;8.904;2023-04-25T01:14:16;100695.59;;;5.47;100.00
11856;BME280;5987;53.140;8.904;2023-04-25T01:17:22;100693.00;;;5.47;100.00
11856;BME280;5987;53.140;8.904;2023-04-25T01:20:26;100696.66;;;5.37;100.00
11856;BME280;5987;53.140;8.904;2023-04-25T01:23:33;100693.19;;;5.38;100.00
11856;BME280;5987;53.140;8.904;2023-04-25T01:26:37;100696.56;;;5.41;100.00
11856;BME280;5987;53.140;8.904;2023-04-25T01:29:42;100693.22;;;5.36;100.00
11856;BME280;5987;53.140;8.904;2023-04-25T01:32:47;100700.06;;;5.40;100.00
11856;BME280;5987;53.140;8.904;2023-04-25T01:35:51;100696.69;;;5.35;100.00
11856;BME280;5987;53.140;8.904;2023-04-25T01:38:57;100688.97;;;5.30;100.00
11856;BME280;5987;53.140;8.904;2023-04-25T01:42:01;100698.66;;;5.22;100.00
11856;BME280;5987;53.140;8.904;2023-04-25T01:45:06;100708.31;;;5.14;100.00
11856;BME280;5987;53.140;8.904;2023-04-25T01:48:12;100715.31;;;5.10;100.00
11856;BME280;5987;53.140;8.904;2023-04-25T01:51:16;100722.19;;;5.14;100.00
11856;BME280;5987;53.140;8.904;2023-04-25T01:54:22;100723.13;;;5.12;100.00
11856;BME280;5987;53.140;8.904;2023-04-25T01:57:25;100727.47;;;5.10;100.00
11856;BME280;5987;53.140;8.904;2023-04-25T02:00:29;100733.75;;;4.98;100.00
11856;BME280;5987;53.140;8.904;2023-04-25T02:03:34;100729.53;;;4.88;100.00
11856;BME280;5987;53.140;8.904;2023-04-25T02:06:38;100727.78;;;4.90;100.00
11856;BME280;5987;53.140;8.904;2023-04-25T02:09:43;100733.06;;;4.84;100.00
11856;BME280;5987;53.140;8.904;2023-04-25T02:12:47;100734.81;;;4.83;100.00
11856;BME280;5987;53.140;8.904;2023-04-25T02:15:50;100737.28;;;4.91;100.00
11856;BME280;5987;53.140;8.904;2023-04-25T02:18:54;100732.22;;;4.83;100.00
11856;BME280;5987;53.140;8.904;2023-04-25T02:21:57;100732.16;;;4.86;100.00
11856;BME280;5987;53.140;8.904;2023-04-25T02:25:04;100740.03;;;4.81;100.00
11856;BME280;5987;53.140;8.904;2023-04-25T02:28:07;100737.56;;;4.72;100.00
11856;BME280;5987;53.140;8.904;2023-04-25T02:31:11;100741.06;;;4.70;100.00
11856;BME280;5987;53.140;8.904;2023-04-25T02:34:14;100744.63;;;4.66;100.00
11856;BME280;5987;53.140;8.904;2023-04-25T02:37:18;100748.09;;;4.64;100.00
11856;BME280;5987;53.140;8.904;2023-04-25T02:40:23;100745.53;;;4.61;100.00
11856;BME280;5987;53.140;8.904;2023-04-25T02:43:26;100749.78;;;4.69;100.00
11856;BME280;5987;53.140;8.904;2023-04-25T02:46:30;100741.16;;;4.63;100.00
11856;BME280;5987;53.140;8.904;2023-04-25T02:49:40;100748.13;;;4.63;100.00
11856;BME280;5987;53.140;8.904;2023-04-25T02:52:43;100757.78;;;4.53;100.00
11856;BME280;5987;53.140;8.904;2023-04-25T02:55:48;100743.13;;;4.46;100.00
11856;BME280;5987;53.140;8.904;2023-04-25T02:58:52;100741.50;;;4.36;100.00
11856;BME280;5987;53.140;8.904;2023-04-25T03:01:56;100741.72;;;4.20;100.00
11856;BME280;5987;53.140;8.904;2023-04-25T03:05:08;100745.31;;;4.10;100.00
11856;BME280;5987;53.140;8.904;2023-04-25T03:08:11;100747.97;;;4.05;100.00
11856;BME280;5987;53.140;8.904;2023-04-25T03:11:15;100741.94;;;4.02;100.00
11856;BME280;5987;53.140;8.904;2023-04-25T03:14:19;100743.63;;;4.06;100.00
11856;BME280;5987;53.140;8.904;2023-04-25T03:17:23;100736.72;;;4.02;100.00
11856;BME280;5987;53.140;8.904;2023-04-25T03:20:28;100746.28;;;4.00;100.00
11856;BME280;5987;53.140;8.904;2023-04-25T03:23:31;100755.88;;;3.93;100.00
11856;BME280;5987;53.140;8.904;2023-04-25T03:26:35;100750.66;;;3.94;100.00
11856;BME280;5987;53.140;8.904;2023-04-25T03:29:39;100749.75;;;4.00;100.00
11856;BME280;5987;53.140;8.904;2023-04-25T03:32:43;100750.56;;;4.04;100.00
11856;BME280;5987;53.140;8.904;2023-04-25T03:35:48;100753.97;;;4.07;100.00
11856;BME280;5987;53.140;8.904;2023-04-25T03:38:53;100762.56;;;4.14;100.00
11856;BME280;5987;53.140;8.904;2023-04-25T03:41:56;100763.41;;;4.16;100.00
11856;BME280;5987;53.140;8.904;2023-04-25T03:45:00;100752.16;;;4.16;100.00
11856;BME280;5987;53.140;8.904;2023-04-25T03:48:04;100764.25;;;4.18;100.00
11856;BME280;5987;53.140;8.904;2023-04-25T03:51:09;100760.00;;;4.12;100.00
11856;BME280;5987;53.140;8.904;2023-04-25T03:54:13;100766.81;;;4.21;100.00
11856;BME280;5987;53.140;8.904;2023-04-25T03:57:17;100761.66;;;4.20;100.00
11856;BME280;5987;53.140;8.904;2023-04-25T04:00:20;100771.16;;;4.22;100.00
11856;BME280;5987;53.140;8.904;2023-04-25T04:03:24;100776.44;;;4.13;100.00
11856;BME280;5987;53.140;8.904;2023-04-25T04:06:30;100776.47;;;4.11;100.00
11856;BME280;5987;53.140;8.904;2023-04-25T04:09:33;100783.38;;;4.14;100.00
11856;BME280;5987;53.140;8.904;2023-04-25T04:12:37;100779.91;;;4.14;100.00
11856;BME280;5987;53.140;8.904;2023-04-25T04:15:41;100784.22;;;4.13;100.00
11856;BME280;5987;53.140;8.904;2023-04-25T04:18:46;100792.84;;;4.18;100.00
11856;BME280;5987;53.140;8.904;2023-04-25T04:21:51;100790.28;;;4.15;100.00
11856;BME280;5987;53.140;8.904;2023-04-25T04:24:54;100800.63;;;4.20;100.00
11856;BME280;5987;53.140;8.904;2023-04-25T04:27:59;100801.47;;;4.20;100.00
11856;BME280;5987;53.140;8.904;2023-04-25T04:31:03;100802.34;;;4.22;100.00
11856;BME280;5987;53.140;8.904;2023-04-25T04:34:07;100812.66;;;4.28;100.00
11856;BME280;5987;53.140;8.904;2023-04-25T04:37:13;100818.66;;;4.35;100.00
11856;BME280;5987;53.140;8.904;2023-04-25T04:40:17;100824.72;;;4.34;100.00
11856;BME280;5987;53.140;8.904;2023-04-25T04:43:21;100825.53;;;4.39;100.00
11856;BME280;5987;53.140;8.904;2023-04-25T04:46:25;100831.72;;;4.31;100.00
11856;BME280;5987;53.140;8.904;2023-04-25T04:49:30;100831.72;;;4.27;100.00
11856;BME280;5987;53.140;8.904;2023-04-25T04:52:35;100829.94;;;4.33;100.00
11856;BME280;5987;53.140;8.904;2023-04-25T04:55:39;100829.84;;;4.42;100.00
11856;BME280;5987;53.140;8.904;2023-04-25T04:58:43;100835.78;;;4.52;100.00
11856;BME280;5987;53.140;8.904;2023-04-25T05:01:47;100833.28;;;4.44;100.00
11856;BME280;5987;53.140;8.904;2023-04-25T05:04:51;100838.38;;;4.53;100.00
11856;BME280;5987;53.140;8.904;2023-04-25T05:07:59;100833.13;;;4.56;100.00
11856;BME280;5987;53.140;8.904;2023-04-25T05:11:03;100834.00;;;4.55;100.00
11856;BME280;5987;53.140;8.904;2023-04-25T05:14:06;100835.66;;;4.61;100.00
11856;BME280;5987;53.140;8.904;2023-04-25T05:17:10;100838.28;;;4.59;100.00
11856;BME280;5987;53.140;8.904;2023-04-25T05:20:14;100845.19;;;4.63;100.00
11856;BME280;5987;53.140;8.904;2023-04-25T05:23:19;100836.47;;;4.68;100.00
11856;BME280;5987;53.140;8.904;2023-04-25T05:26:23;100840.81;;;4.67;100.00
11856;BME280;5987;53.140;8.904;2023-04-25T05:29:26;100853.78;;;4.70;100.00
11856;BME280;5987;53.140;8.904;2023-04-25T05:32:30;100859.78;;;4.74;100.00
11856;BME280;5987;53.140;8.904;2023-04-25T05:35:34;100860.50;;;4.85;100.00
11856;BME280;5987;53.140;8.904;2023-04-25T05:38:39;100869.19;;;4.86;100.00
11856;BME280;5987;53.140;8.904;2023-04-25T05:41:42;100861.38;;;4.87;100.00
11856;BME280;5987;53.140;8.904;2023-04-25T05:44:46;100866.56;;;4.87;100.00
11856;BME280;5987;53.140;8.904;2023-04-25T05:47:50;100867.41;;;4.89;100.00
11856;BME280;5987;53.140;8.904;2023-04-25T05:50:55;100875.19;;;4.91;100.00
11856;BME280;5987;53.140;8.904;2023-04-25T05:54:00;100869.06;;;4.93;100.00
11856;BME280;5987;53.140;8.904;2023-04-25T05:57:04;100877.69;;;4.98;100.00
11856;BME280;5987;53.140;8.904;2023-04-25T06:00:09;100884.59;;;5.03;100.00
11856;BME280;5987;53.140;8.904;2023-04-25T06:03:13;100883.19;;;4.75;100.00
11856;BME280;5987;53.140;8.904;2023-04-25T06:06:22;100884.69;;;4.93;100.00
11856;BME280;5987;53.140;8.904;2023-04-25T06:09:27;100887.84;;;5.17;100.00
11856;BME280;5987;53.140;8.904;2023-04-25T06:12:31;100887.84;;;5.17;100.00
11856;BME280;5987;53.140;8.904;2023-04-25T06:15:35;100891.09;;;5.35;100.00
11856;BME280;5987;53.140;8.904;2023-04-25T06:18:39;100882.03;;;5.60;100.00
11856;BME280;5987;53.140;8.904;2023-04-25T06:21:44;100894.19;;;5.58;100.00
11856;BME280;5987;53.140;8.904;2023-04-25T06:24:49;100896.22;;;6.47;100.00
11856;BME280;5987;53.140;8.904;2023-04-25T06:27:52;100900.81;;;5.81;100.00
11856;BME280;5987;53.140;8.904;2023-04-25T06:30:56;100894.59;;;5.90;100.00
11856;BME280;5987;53.140;8.904;2023-04-25T06:34:00;100905.88;;;5.90;100.00
11856;BME280;5987;53.140;8.904;2023-04-25T06:37:04;100910.19;;;5.91;100.00
11856;BME280;5987;53.140;8.904;2023-04-25T06:40:10;100909.47;;;5.83;100.00
11856;BME280;5987;53.140;8.904;2023-04-25T06:43:14;100911.47;;;5.65;100.00
11856;BME280;5987;53.140;8.904;2023-04-25T06:46:18;100916.97;;;6.03;100.00
11856;BME280;5987;53.140;8.904;2023-04-25T06:49:22;100918.38;;;5.70;100.00
11856;BME280;5987;53.140;8.904;2023-04-25T06:52:25;100934.28;;;5.48;100.00
11856;BME280;5987;53.140;8.904;2023-04-25T06:55:30;100923.97;;;5.42;100.00
11856;BME280;5987;53.140;8.904;2023-04-25T06:58:34;100942.75;;;4.98;100.00
11856;BME280;5987;53.140;8.904;2023-04-25T07:01:38;100943.72;;;4.90;100.00
11856;BME280;5987;53.140;8.904;2023-04-25T07:04:42;100932.34;;;4.98;100.00
11856;BME280;5987;53.140;8.904;2023-04-25T07:07:47;100936.59;;;5.06;100.00
11856;BME280;5987;53.140;8.904;2023-04-25T07:10:52;100934.44;;;5.36;100.00
11856;BME280;5987;53.140;8.904;2023-04-25T07:13:56;100946.81;;;5.21;100.00
11856;BME280;5987;53.140;8.904;2023-04-25T07:16:59;100938.91;;;5.26;100.00
11856;BME280;5987;53.140;8.904;2023-04-25T07:20:05;100941.22;;;5.49;100.00
11856;BME280;5987;53.140;8.904;2023-04-25T07:23:10;100935.81;;;5.64;100.00
11856;BME280;5987;53.140;8.904;2023-04-25T07:26:15;100940.78;;;5.80;100.00
11856;BME280;5987;53.140;8.904;2023-04-25T07:29:18;100951.19;;;5.81;100.00
11856;BME280;5987;53.140;8.904;2023-04-25T07:32:22;100957.03;;;5.97;100.00
11856;BME280;5987;53.140;8.904;2023-04-25T07:35:26;100949.50;;;6.33;100.00
11856;BME280;5987;53.140;8.904;2023-04-25T07:38:30;100954.72;;;6.80;100.00
11856;BME280;5987;53.140;8.904;2023-04-25T07:41:35;100952.94;;;6.84;100.00
11856;BME280;5987;53.140;8.904;2023-04-25T07:44:38;100946.97;;;6.77;100.00
11856;BME280;5987;53.140;8.904;2023-04-25T07:47:42;100950.75;;;6.61;100.00
11856;BME280;5987;53.140;8.904;2023-04-25T07:50:46;100955.28;;;6.98;100.00
11856;BME280;5987;53.140;8.904;2023-04-25T07:53:49;100949.59;;;7.60;100.00
11856;BME280;5987;53.140;8.904;2023-04-25T07:56:55;100954.28;;;7.46;100.00
11856;BME280;5987;53.140;8.904;2023-04-25T07:59:58;100957.91;;;7.38;100.00
11856;BME280;5987;53.140;8.904;2023-04-25T08:03:04;100969.34;;;6.91;100.00
11856;BME280;5987;53.140;8.904;2023-04-25T08:06:11;100977.22;;;6.86;100.00
11856;BME280;5987;53.140;8.904;2023-04-25T08:09:16;100977.78;;;6.57;100.00
11856;BME280;5987;53.140;8.904;2023-04-25T08:12:20;100980.59;;;6.46;100.00
11856;BME280;5987;53.140;8.904;2023-04-25T08:15:25;100979.72;;;6.44;100.00
11856;BME280;5987;53.140;8.904;2023-04-25T08:18:28;100989.38;;;6.40;100.00
11856;BME280;5987;53.140;8.904;2023-04-25T08:21:33;100990.38;;;6.33;100.00
11856;BME280;5987;53.140;8.904;2023-04-25T08:24:36;100989.16;;;6.54;100.00
11856;BME280;5987;53.140;8.904;2023-04-25T08:27:42;101000.25;;;6.65;100.00
11856;BME280;5987;53.140;8.904;2023-04-25T08:30:46;100993.16;;;6.72;100.00
11856;BME280;5987;53.140;8.904;2023-04-25T08:33:50;100999.16;;;6.77;100.00
11856;BME280;5987;53.140;8.904;2023-04-25T08:36:54;100997.75;;;7.04;100.00
11856;BME280;5987;53.140;8.904;2023-04-25T08:39:58;101001.63;;;7.30;100.00
11856;BME280;5987;53.140;8.904;2023-04-25T08:43:04;100999.66;;;7.81;100.00
11856;BME280;5987;53.140;8.904;2023-04-25T08:46:17;101014.72;;;7.69;100.00
11856;BME280;5987;53.140;8.904;2023-04-25T08:49:22;101020.53;;;7.42;100.00
11856;BME280;5987;53.140;8.904;2023-04-25T08:52:32;101021.50;;;7.37;100.00
11856;BME280;5987;53.140;8.904;2023-04-25T08:55:41;101026.91;;;7.69;100.00
11856;BME280;5987;53.140;8.904;2023-04-25T08:58:48;101031.56;;;7.12;100.00
11856;BME280;5987;53.140;8.904;2023-04-25T09:01:53;101030.97;;;7.84;100.00
11856;BME280;5987;53.140;8.904;2023-04-25T09:04:57;101031.22;;;8.11;100.00
11856;BME280;5987;53.140;8.904;2023-04-25T09:08:01;101029.97;;;8.27;100.00
11856;BME280;5987;53.140;8.904;2023-04-25T09:11:05;101035.16;;;8.99;100.00
11856;BME280;5987;53.140;8.904;2023-04-25T09:14:14;101032.75;;;9.23;100.00
11856;BME280;5987;53.140;8.904;2023-04-25T09:17:19;101039.09;;;9.46;100.00
11856;BME280;5987;53.140;8.904;2023-04-25T09:20:22;101033.75;;;9.49;100.00
11856;BME280;5987;53.140;8.904;2023-04-25T09:23:27;101049.53;;;8.83;100.00
11856;BME280;5987;53.140;8.904;2023-04-25T09:26:32;101046.47;;;8.29;100.00
11856;BME280;5987;53.140;8.904;2023-04-25T09:29:39;101057.69;;;7.56;100.00
11856;BME280;5987;53.140;8.904;2023-04-25T09:32:43;101082.53;;;7.33;100.00
11856;BME280;5987;53.140;8.904;2023-04-25T09:35:47;101122.00;;;5.28;100.00
11856;BME280;5987;53.140;8.904;2023-04-25T09:38:55;101144.22;;;4.68;100.00
11856;BME280;5987;53.140;8.904;2023-04-25T09:41:59;101162.72;;;4.23;100.00
11856;BME280;5987;53.140;8.904;2023-04-25T09:45:06;101150.59;;;4.21;100.00
11856;BME280;5987;53.140;8.904;2023-04-25T09:48:10;101136.38;;;4.70;100.00
11856;BME280;5987;53.140;8.904;2023-04-25T09:51:14;101132.72;;;4.95;100.00
11856;BME280;5987;53.140;8.904;2023-04-25T09:54:17;101136.13;;;5.04;100.00
11856;BME280;5987;53.140;8.904;2023-04-25T09:57:24;101143.41;;;5.56;100.00
11856;BME280;5987;53.140;8.904;2023-04-25T10:00:30;101138.00;;;5.73;100.00
11856;BME280;5987;53.140;8.904;2023-04-25T10:03:38;101125.84;;;6.41;100.00
11856;BME280;5987;53.140;8.904;2023-04-25T10:06:44;101124.44;;;7.27;100.00
11856;BME280;5987;53.140;8.904;2023-04-25T10:09:54;101112.91;;;7.37;100.00
11856;BME280;5987;53.140;8.904;2023-04-25T10:12:59;101114.22;;;7.15;100.00
11856;BME280;5987;53.140;8.904;2023-04-25T10:16:05;101112.59;;;7.08;100.00
11856;BME280;5987;53.140;8.904;2023-04-25T10:19:09;101123.78;;;7.16;100.00
11856;BME280;5987;53.140;8.904;2023-04-25T10:22:20;101112.66;;;7.51;100.00
11856;BME280;5987;53.140;8.904;2023-04-25T10:25:26;101108.91;;;8.05;100.00
11856;BME280;5987;53.140;8.904;2023-04-25T10:28:57;101127.66;;;7.85;100.00
11856;BME280;5987;53.140;8.904;2023-04-25T10:32:02;101111.53;;;8.05;100.00
11856;BME280;5987;53.140;8.904;2023-04-25T10:35:15;101103.38;;;8.58;100.00
11856;BME280;5987;53.140;8.904;2023-04-25T10:38:19;101106.13;;;8.54;100.00
11856;BME280;5987;53.140;8.904;2023-04-25T10:41:23;101104.47;;;8.50;100.00
11856;BME280;5987;53.140;8.904;2023-04-25T10:44:27;101108.50;;;8.24;100.00
11856;BME280;5987;53.140;8.904;2023-04-25T10:47:38;101119.03;;;8.21;100.00
11856;BME280;5987;53.140;8.904;2023-04-25T10:50:49;101123.78;;;8.03;100.00
11856;BME280;5987;53.140;8.904;2023-04-25T10:54:01;101127.66;;;7.85;100.00
11856;BME280;5987;53.140;8.904;2023-04-25T10:57:05;101133.06;;;8.17;100.00
11856;BME280;5987;53.140;8.904;2023-04-25T11:00:13;101125.28;;;8.14;100.00
11856;BME280;5987;53.140;8.904;2023-04-25T11:03:22;101119.09;;;8.18;100.00
11856;BME280;5987;53.140;8.904;2023-04-25T11:06:43;101122.84;;;8.83;100.00
11856;BME280;5987;53.140;8.904;2023-04-25T11:09:51;101147.59;;;9.05;100.00
11856;BME280;5987;53.140;8.904;2023-04-25T11:12:55;101143.13;;;8.37;100.00
11856;BME280;5987;53.140;8.904;2023-04-25T11:15:59;101153.75;;;7.87;100.00
11856;BME280;5987;53.140;8.904;2023-04-25T11:19:15;101151.28;;;7.34;100.00
11856;BME280;5987;53.140;8.904;2023-04-25T11:22:22;101149.97;;;7.58;100.00
11856;BME280;5987;53.140;8.904;2023-04-25T11:25:26;101156.00;;;7.15;100.00
11856;BME280;5987;53.140;8.904;2023-04-25T11:28:30;101152.53;;;7.13;100.00
11856;BME280;5987;53.140;8.904;2023-04-25T11:31:34;101150.50;;;7.76;100.00
11856;BME280;5987;53.140;8.904;2023-04-25T11:34:39;101148.19;;;7.60;100.00
11856;BME280;5987;53.140;8.904;2023-04-25T11:37:46;101165.41;;;7.70;100.00
11856;BME280;5987;53.140;8.904;2023-04-25T11:40:51;101163.19;;;7.50;100.00
11856;BME280;5987;53.140;8.904;2023-04-25T11:43:55;101174.22;;;7.65;100.00
11856;BME280;5987;53.140;8.904;2023-04-25T11:46:58;101176.06;;;7.61;100.00
11856;BME280;5987;53.140;8.904;2023-04-25T11:50:06;101175.53;;;7.42;100.00
11856;BME280;5987;53.140;8.904;2023-04-25T11:53:11;101183.75;;;7.67;100.00
11856;BME280;5987;53.140;8.904;2023-04-25T11:56:15;101182.94;;;8.09;100.00
11856;BME280;5987;53.140;8.904;2023-04-25T11:59:24;101189.53;;;7.85;100.00
11856;BME280;5987;53.140;8.904;2023-04-25T12:02:28;101185.13;;;7.87;100.00
11856;BME280;5987;53.140;8.904;2023-04-25T12:05:34;101188.28;;;8.47;100.00
11856;BME280;5987;53.140;8.904;2023-04-25T12:09:02;101199.38;;;8.16;100.00
11856;BME280;5987;53.140;8.904;2023-04-25T12:12:10;101234.22;;;7.21;100.00
11856;BME280;5987;53.140;8.904;2023-04-25T12:15:27;101229.97;;;7.15;100.00
11856;BME280;5987;53.140;8.904;2023-04-25T12:18:31;101224.19;;;6.96;100.00
11856;BME280;5987;53.140;8.904;2023-04-25T12:21:36;101227.59;;;7.00;100.00
11856;BME280;5987;53.140;8.904;2023-04-25T12:24:58;101219.59;;;7.11;100.00
11856;BME280;5987;53.140;8.904;2023-04-25T12:28:14;101229.28;;;7.02;100.00
11856;BME280;5987;53.140;8.904;2023-04-25T12:31:18;101220.41;;;7.13;100.00
11856;BME280;5987;53.140;8.904;2023-04-25T12:34:23;101220.03;;;7.37;100.00
11856;BME280;5987;53.140;8.904;2023-04-25T12:37:29;101217.56;;;7.77;100.00
11856;BME280;5987;53.140;8.904;2023-04-25T12:40:33;101213.81;;;7.90;100.00
11856;BME280;5987;53.140;8.904;2023-04-25T12:43:37;101220.44;;;8.08;100.00
11856;BME280;5987;53.140;8.904;2023-04-25T12:46:41;101211.94;;;8.39;100.00
11856;BME280;5987;53.140;8.904;2023-04-25T12:49:44;101211.53;;;8.17;100.00
11856;BME280;5987;53.140;8.904;2023-04-25T12:52:49;101207.88;;;8.68;100.00
11856;BME280;5987;53.140;8.904;2023-04-25T12:55:53;101206.22;;;8.64;100.00
11856;BME280;5987;53.140;8.904;2023-04-25T12:59:02;101203.34;;;8.74;100.00
11856;BME280;5987;53.140;8.904;2023-04-25T13:02:06;101208.25;;;8.49;100.00
11856;BME280;5987;53.140;8.904;2023-04-25T13:05:09;101235.75;;;7.83;100.00
11856;BME280;5987;53.140;8.904;2023-04-25T13:08:14;101241.03;;;7.30;100.00
11856;BME280;5987;53.140;8.904;2023-04-25T13:11:19;101245.63;;;7.15;100.00
11856;BME280;5987;53.140;8.904;2023-04-25T13:14:22;101250.19;;;7.02;100.00
11856;BME280;5987;53.140;8.904;2023-04-25T13:17:26;101257.63;;;6.69;100.00
11856;BME280;5987;53.140;8.904;2023-04-25T13:20:30;101243.34;;;6.95;100.00
11856;BME280;5987;53.140;8.904;2023-04-25T13:23:35;101237.88;;;7.11;100.00
11856;BME280;5987;53.140;8.904;2023-04-25T13:26:39;101233.19;;;7.30;100.00
11856;BME280;5987;53.140;8.904;2023-04-25T13:29:42;101227.59;;;7.53;100.00
11856;BME280;5987;53.140;8.904;2023-04-25T13:32:46;101219.19;;;7.84;100.00
11856;BME280;5987;53.140;8.904;2023-04-25T13:35:50;101220.56;;;8.02;100.00
11856;BME280;5987;53.140;8.904;2023-04-25T13:38:57;101218.72;;;8.49;100.00
11856;BME280;5987;53.140;8.904;2023-04-25T13:42:01;101211.84;;;8.45;100.00
11856;BME280;5987;53.140;8.904;2023-04-25T13:45:06;101214.75;;;8.31;100.00
11856;BME280;5987;53.140;8.904;2023-04-25T13:48:10;101228.50;;;8.39;100.00
11856;BME280;5987;53.140;8.904;2023-04-25T13:51:15;101227.31;;;8.14;100.00
11856;BME280;5987;53.140;8.904;2023-04-25T13:54:21;101233.75;;;7.96;100.00
11856;BME280;5987;53.140;8.904;2023-04-25T13:57:25;101241.53;;;8.00;100.00
11856;BME280;5987;53.140;8.904;2023-04-25T14:00:28;101246.09;;;7.89;100.00
11856;BME280;5987;53.140;8.904;2023-04-25T14:03:33;101243.19;;;8.04;100.00
11856;BME280;5987;53.140;8.904;2023-04-25T14:06:37;101264.84;;;7.64;100.00
11856;BME280;5987;53.140;8.904;2023-04-25T14:09:42;101257.50;;;7.85;100.00
11856;BME280;5987;53.140;8.904;2023-04-25T14:12:46;101262.41;;;8.02;100.00
11856;BME280;5987;53.140;8.904;2023-04-25T14:15:50;101260.84;;;7.43;100.00
11856;BME280;5987;53.140;8.904;2023-04-25T14:18:54;101254.72;;;7.46;100.00
11856;BME280;5987;53.140;8.904;2023-04-25T14:21:57;101251.88;;;7.60;100.00
11856;BME280;5987;53.140;8.904;2023-04-25T14:25:03;101254.06;;;8.27;100.00
11856;BME280;5987;53.140;8.904;2023-04-25T14:28:07;101258.72;;;8.56;100.00
11856;BME280;5987;53.140;8.904;2023-04-25T14:31:11;101274.72;;;8.40;100.00
11856;BME280;5987;53.140;8.904;2023-04-25T14:34:15;101298.72;;;7.17;100.00
11856;BME280;5987;53.140;8.904;2023-04-25T14:37:19;101341.84;;;6.03;100.00
11856;BME280;5987;53.140;8.904;2023-04-25T14:40:25;101350.28;;;5.21;100.00
11856;BME280;5987;53.140;8.904;2023-04-25T14:43:28;101358.38;;;4.62;100.00
11856;BME280;5987;53.140;8.904;2023-04-25T14:46:32;101343.66;;;4.64;100.00
11856;BME280;5987;53.140;8.904;2023-04-25T14:49:36;101341.78;;;4.91;100.00
11856;BME280;5987;53.140;8.904;2023-04-25T14:52:40;101333.78;;;5.25;100.00
11856;BME280;5987;53.140;8.904;2023-04-25T14:55:45;101331.91;;;5.43;100.00
11856;BME280;5987;53.140;8.904;2023-04-25T14:58:49;101318.47;;;5.92;100.00
11856;BME280;5987;53.140;8.904;2023-04-25T15:01:53;101318.19;;;6.23;100.00
11856;BME280;5987;53.140;8.904;2023-04-25T15:05:00;101314.84;;;6.85;100.00
11856;BME280;5987;53.140;8.904;2023-04-25T15:08:06;101321.72;;;6.89;100.00
11856;BME280;5987;53.140;8.904;2023-04-25T15:11:11;101312.13;;;7.49;100.00
11856;BME280;5987;53.140;8.904;2023-04-25T15:14:14;101318.84;;;7.09;100.00
11856;BME280;5987;53.140;8.904;2023-04-25T15:17:18;101326.03;;;6.95;100.00
11856;BME280;5987;53.140;8.904;2023-04-25T15:20:22;101328.06;;;6.71;100.00
11856;BME280;5987;53.140;8.904;2023-04-25T15:23:26;101347.63;;;6.31;100.00
11856;BME280;5987;53.140;8.904;2023-04-25T15:26:32;101363.06;;;5.55;100.00
11856;BME280;5987;53.140;8.904;2023-04-25T15:29:36;101357.97;;;5.40;100.00
11856;BME280;5987;53.140;8.904;2023-04-25T15:32:40;101363.97;;;5.56;100.00
11856;BME280;5987;53.140;8.904;2023-04-25T15:35:44;101356.94;;;5.62;100.00
11856;BME280;5987;53.140;8.904;2023-04-25T15:38:47;101355.03;;;5.83;100.00
11856;BME280;5987;53.140;8.904;2023-04-25T15:41:53;101346.28;;;5.92;100.00
11856;BME280;5987;53.140;8.904;2023-04-25T15:44:57;101350.41;;;6.19;100.00
11856;BME280;5987;53.140;8.904;2023-04-25T15:48:01;101357.16;;;6.35;100.00
11856;BME280;5987;53.140;8.904;2023-04-25T15:51:05;101341.41;;;6.45;100.00
11856;BME280;5987;53.140;8.904;2023-04-25T15:54:09;101341.25;;;6.60;100.00
11856;BME280;5987;53.140;8.904;2023-04-25T15:57:14;101350.84;;;6.58;100.00
11856;BME280;5987;53.140;8.904;2023-04-25T16:00:18;101346.69;;;6.40;100.00
11856;BME280;5987;53.140;8.904;2023-04-25T16:03:23;101351.84;;;6.46;100.00
11856;BME280;5987;53.140;8.904;2023-04-25T16:06:27;101360.03;;;6.12;100.00
11856;BME280;5987;53.140;8.904;2023-04-25T16:09:31;101364.66;;;5.76;100.00
11856;BME280;5987;53.140;8.904;2023-04-25T16:12:37;101365.13;;;6.23;100.00
11856;BME280;5987;53.140;8.904;2023-04-25T16:15:41;101351.41;;;6.04;100.00
11856;BME280;5987;53.140;8.904;2023-04-25T16:18:44;101352.88;;;6.33;100.00